Observation data for Jayton on 01/12/2018      Previous  Date  Next       Current Mesonet Observations  Soil Data  Daily Summary Page  Observations in Plain Language
KJTS 120600Z 01003KT M01/M10 A3029 RMK A01 T10141098  RH  054%=      5-min Rain = 0
KJTS 120605Z 35003KT M01/M10 A3029 RMK A01 T10131097  RH  053%=      5-min Rain = 0
KJTS 120610Z 33003KT M02/M10 A303 RMK A01 T10161101  RH  053%=      5-min Rain = 0
KJTS 120615Z 33004KT M02/M10 A3029 RMK A01 T10231102  RH  055%=      5-min Rain = 0
KJTS 120620Z 33004KT M03/M10 A303 RMK A01 T10271103  RH  057%=      5-min Rain = 0
KJTS 120625Z 32004KT M03/M10 A303 RMK A01 T10281102  RH  058%=      5-min Rain = 0
KJTS 120630Z 30004KT M03/M10 A303 RMK A01 T10281100  RH  058%=      5-min Rain = 0
KJTS 120635Z 27003KT M03/M10 A303 RMK A01 T10281103  RH  057%=      5-min Rain = 0
KJTS 120640Z 27003KT M04/M11 A303 RMK A01 T10401111  RH  058%=      5-min Rain = 0
KJTS 120645Z 29003KT M05/M11 A303 RMK A01 T10451110  RH  061%=      5-min Rain = 0
KJTS 120650Z 30003KT M04/M11 A303 RMK A01 T10441108  RH  062%=      5-min Rain = 0
KJTS 120655Z 31003KT M05/M11 A303 RMK A01 T10451109  RH  062%=      5-min Rain = 0
KJTS 120700Z 33003KT M05/M11 A303 RMK A01 T10451108  RH  062%=      5-min Rain = 0
KJTS 120705Z 31002KT M05/M11 A3031 RMK A01 T10451108  RH  062%=      5-min Rain = 0
KJTS 120710Z 32002KT M05/M11 A303 RMK A01 T10471108  RH  063%=      5-min Rain = 0
KJTS 120715Z 33002KT M04/M11 A303 RMK A01 T10441107  RH  062%=      5-min Rain = 0
KJTS 120720Z 33004KT M04/M11 A303 RMK A01 T10441109  RH  061%=      5-min Rain = 0
KJTS 120725Z 34004KT M05/M11 A303 RMK A01 T10471110  RH  062%=      5-min Rain = 0
KJTS 120730Z 35003KT M04/M11 A303 RMK A01 T10431106  RH  062%=      5-min Rain = 0
KJTS 120735Z 33002KT M04/M11 A303 RMK A01 T10421108  RH  061%=      5-min Rain = 0
KJTS 120740Z 34003KT M04/M11 A303 RMK A01 T10441108  RH  062%=      5-min Rain = 0
KJTS 120745Z 01003KT M04/M10 A303 RMK A01 T10431104  RH  063%=      5-min Rain = 0
KJTS 120750Z 36003KT M04/M10 A303 RMK A01 T10351100  RH  062%=      5-min Rain = 0
KJTS 120755Z 34001KT M04/M11 A303 RMK A01 T10391108  RH  059%=      5-min Rain = 0
KJTS 120800Z 03002KT M05/M11 A303 RMK A01 T10451113  RH  060%=      5-min Rain = 0
KJTS 120805Z 04004KT M06/M11 A3029 RMK A01 T10551113  RH  065%=      5-min Rain = 0
KJTS 120810Z 04004KT M04/M10 A303 RMK A01 T10431096  RH  067%=      5-min Rain = 0
KJTS 120815Z 05003KT M03/M10 A303 RMK A01 T10321097  RH  061%=      5-min Rain = 0
KJTS 120820Z 04002KT M04/M11 A303 RMK A01 T10421113  RH  058%=      5-min Rain = 0
KJTS 120825Z 04003KT M05/M11 A303 RMK A01 T10501108  RH  065%=      5-min Rain = 0
KJTS 120830Z 04003KT M05/M10 A303 RMK A01 T10451102  RH  065%=      5-min Rain = 0
KJTS 120835Z 05003KT M05/M11 A303 RMK A01 T10461105  RH  064%=      5-min Rain = 0
KJTS 120840Z 04004KT M05/M10 A303 RMK A01 T10451100  RH  066%=      5-min Rain = 0
KJTS 120845Z 04004KT M04/M10 A303 RMK A01 T10431099  RH  066%=      5-min Rain = 0
KJTS 120850Z 04005KT M04/M10 A303 RMK A01 T10381096  RH  065%=      5-min Rain = 0
KJTS 120855Z 03004KT M04/M10 A303 RMK A01 T10371097  RH  064%=      5-min Rain = 0
KJTS 120900Z 03004KT M04/M10 A3029 RMK A01 T10381098  RH  064%=      5-min Rain = 0
KJTS 120905Z 01002KT M04/M10 A3029 RMK A01 T10421101  RH  064%=      5-min Rain = 0
KJTS 120910Z 01002KT M05/M10 A3029 RMK A01 T10461103  RH  065%=      5-min Rain = 0
KJTS 120915Z 00002KT M05/M10 A303 RMK A01 T10481102  RH  067%=      5-min Rain = 0
KJTS 120920Z 32002KT M05/M10 A303 RMK A01 T10471100  RH  067%=      5-min Rain = 0
KJTS 120925Z 32002KT M05/M10 A303 RMK A01 T10481102  RH  067%=      5-min Rain = 0
KJTS 120930Z 35002KT M05/M10 A303 RMK A01 T10481102  RH  067%=      5-min Rain = 0
KJTS 120935Z 00002KT M05/M10 A303 RMK A01 T10471099  RH  068%=      5-min Rain = 0
KJTS 120940Z 34003KT M05/M10 A303 RMK A01 T10461101  RH  066%=      5-min Rain = 0
KJTS 120945Z 33003KT M05/M11 A303 RMK A01 T10521106  RH  067%=      5-min Rain = 0
KJTS 120950Z 31003KT M06/M11 A303 RMK A01 T10571106  RH  069%=      5-min Rain = 0
KJTS 120955Z 33003KT M06/M10 A3029 RMK A01 T10561103  RH  070%=      5-min Rain = 0
KJTS 121000Z 34003KT M06/M10 A3029 RMK A01 T10551104  RH  069%=      5-min Rain = 0
KJTS 121005Z 33002KT M05/M11 A3029 RMK A01 T10541105  RH  068%=      5-min Rain = 0
KJTS 121010Z 32001KT M06/M11 A3029 RMK A01 T10561106  RH  069%=      5-min Rain = 0
KJTS 121015Z 31002KT M06/M11 A3028 RMK A01 T10591108  RH  069%=      5-min Rain = 0
KJTS 121020Z 27002KT M06/M11 A3028 RMK A01 T10611106  RH  071%=      5-min Rain = 0
KJTS 121025Z 26003KT M06/M11 A3029 RMK A01 T10621108  RH  071%=      5-min Rain = 0
KJTS 121030Z 25003KT M06/M11 A3029 RMK A01 T10631108  RH  072%=      5-min Rain = 0
KJTS 121035Z 26003KT M07/M11 A3029 RMK A01 T10651110  RH  072%=      5-min Rain = 0
KJTS 121040Z 28002KT M07/M11 A3029 RMK A01 T10671110  RH  072%=      5-min Rain = 0
KJTS 121045Z 28002KT M07/M11 A3029 RMK A01 T10661108  RH  073%=      5-min Rain = 0
KJTS 121050Z 28003KT M07/M11 A3029 RMK A01 T10651108  RH  072%=      5-min Rain = 0
KJTS 121055Z 29004KT M07/M11 A3029 RMK A01 T10691114  RH  072%=      5-min Rain = 0
KJTS 121100Z 29003KT M08/M12 A303 RMK A01 T10751117  RH  073%=      5-min Rain = 0
KJTS 121105Z 28003KT M08/M12 A303 RMK A01 T10771116  RH  074%=      5-min Rain = 0
KJTS 121110Z 28004KT M08/M12 A303 RMK A01 T10771115  RH  075%=      5-min Rain = 0
KJTS 121115Z 30003KT M08/M11 A3029 RMK A01 T10751113  RH  075%=      5-min Rain = 0
KJTS 121120Z 31004KT M08/M11 A3029 RMK A01 T10761114  RH  075%=      5-min Rain = 0
KJTS 121125Z 32004KT M08/M11 A3029 RMK A01 T10761114  RH  075%=      5-min Rain = 0
KJTS 121130Z 32004KT M08/M12 A3029 RMK A01 T10771115  RH  075%=      5-min Rain = 0
KJTS 121135Z 32003KT M08/M12 A3029 RMK A01 T10781116  RH  075%=      5-min Rain = 0
KJTS 121140Z 31004KT M08/M12 A3029 RMK A01 T10771115  RH  075%=      5-min Rain = 0
KJTS 121145Z 31003KT M08/M12 A3029 RMK A01 T10781116  RH  075%=      5-min Rain = 0
KJTS 121150Z 32003KT M08/M12 A303 RMK A01 T10781116  RH  075%=      5-min Rain = 0
KJTS 121155Z 33003KT M08/M11 A3029 RMK A01 T10771114  RH  076%=      5-min Rain = 0
KJTS 121200Z 31004KT M08/M12 A303 RMK A01 T10781116  RH  075%=      5-min Rain = 0
KJTS 121205Z 30005KT M08/M12 A303 RMK A01 T10811119  RH  075%=      5-min Rain = 0
KJTS 121210Z 31005KT M08/M12 A303 RMK A01 T10811115  RH  077%=      5-min Rain = 0
KJTS 121215Z 31004KT M08/M11 A303 RMK A01 T10771111  RH  077%=      5-min Rain = 0
KJTS 121220Z 32004KT M07/M11 A303 RMK A01 T10741110  RH  076%=      5-min Rain = 0
KJTS 121225Z 31004KT M08/M11 A303 RMK A01 T10751113  RH  075%=      5-min Rain = 0
KJTS 121230Z 30003KT M08/M12 A3031 RMK A01 T10771115  RH  076%=      5-min Rain = 0
KJTS 121235Z 32003KT M08/M11 A3031 RMK A01 T10781113  RH  077%=      5-min Rain = 0
KJTS 121240Z 32003KT M08/M11 A3031 RMK A01 T10781114  RH  076%=      5-min Rain = 0
KJTS 121245Z 31003KT M08/M12 A3031 RMK A01 T10791116  RH  076%=      5-min Rain = 0
KJTS 121250Z 32003KT M08/M12 A3031 RMK A01 T10801115  RH  077%=      5-min Rain = 0
KJTS 121255Z 31002KT M08/M12 A3031 RMK A01 T10811117  RH  076%=      5-min Rain = 0
KJTS 121300Z 29001KT M08/M12 A303 RMK A01 T10811115  RH  077%=      5-min Rain = 0
KJTS 121305Z 29001KT M08/M12 A303 RMK A01 T10811116  RH  077%=      5-min Rain = 0
KJTS 121310Z 29000KT M08/M12 A303 RMK A01 T10831117  RH  077%=      5-min Rain = 0
KJTS 121315Z 29001KT M08/M12 A3031 RMK A01 T10831116  RH  078%=      5-min Rain = 0
KJTS 121320Z 29002KT M08/M12 A303 RMK A01 T10831117  RH  078%=      5-min Rain = 0
KJTS 121325Z 29002KT M09/M12 A303 RMK A01 T10851119  RH  077%=      5-min Rain = 0
KJTS 121330Z 30001KT M08/M12 A3031 RMK A01 T10831115  RH  079%=      5-min Rain = 0
KJTS 121335Z 33001KT M08/M11 A3031 RMK A01 T10811113  RH  079%=      5-min Rain = 0
KJTS 121340Z 33001KT M08/M11 A3031 RMK A01 T10801113  RH  078%=      5-min Rain = 0
KJTS 121345Z 31002KT M08/M12 A3031 RMK A01 T10821115  RH  078%=      5-min Rain = 0
KJTS 121350Z 30002KT M09/M12 A3031 RMK A01 T10851118  RH  078%=      5-min Rain = 0
KJTS 121355Z 30002KT M09/M12 A3032 RMK A01 T10861120  RH  078%=      5-min Rain = 0
KJTS 121400Z 31001KT M09/M12 A3032 RMK A01 T10861118  RH  078%=      5-min Rain = 0
KJTS 121405Z 31002KT M08/M12 A3032 RMK A01 T10831119  RH  077%=      5-min Rain = 0
KJTS 121410Z 30002KT M08/M12 A3032 RMK A01 T10821120  RH  075%=      5-min Rain = 0
KJTS 121415Z 29002KT M08/M12 A3033 RMK A01 T10821121  RH  075%=      5-min Rain = 0
KJTS 121420Z 28003KT M08/M12 A3033 RMK A01 T10831120  RH  075%=      5-min Rain = 0
KJTS 121425Z 28003KT M08/M11 A3033 RMK A01 T10781114  RH  077%=      5-min Rain = 0
KJTS 121430Z 28002KT M07/M11 A3033 RMK A01 T10731110  RH  076%=      5-min Rain = 0
KJTS 121435Z 30001KT M07/M11 A3033 RMK A01 T10681107  RH  074%=      5-min Rain = 0
KJTS 121440Z 29002KT M06/M11 A3033 RMK A01 T10641106  RH  073%=      5-min Rain = 0
KJTS 121445Z 30001KT M06/M11 A3033 RMK A01 T10601105  RH  071%=      5-min Rain = 0
KJTS 121450Z 00000KT M05/M10 A3032 RMK A01 T10541101  RH  070%=      5-min Rain = 0
KJTS 121455Z 00000KT M05/M10 A3033 RMK A01 T10461098  RH  068%=      5-min Rain = 0
KJTS 121500Z 33000KT M04/M10 A3033 RMK A01 T10411097  RH  066%=      5-min Rain = 0
KJTS 121505Z 01000KT M04/M10 A3033 RMK A01 T10371095  RH  064%=      5-min Rain = 0
KJTS 121510Z 30001KT M03/M10 A3033 RMK A01 T10311095  RH  062%=      5-min Rain = 0
KJTS 121515Z 07000KT M03/M09 A3033 RMK A01 T10261093  RH  060%=      5-min Rain = 0
KJTS 121520Z 12001KT M02/M09 A3033 RMK A01 T10211093  RH  058%=      5-min Rain = 0
KJTS 121525Z 07001KT M02/M09 A3033 RMK A01 T10161093  RH  056%=      5-min Rain = 0
KJTS 121530Z 13001KT M02/M10 A3033 RMK A01 T10161096  RH  055%=      5-min Rain = 0
KJTS 121535Z 17002KT M02/M10 A3033 RMK A01 T10161101  RH  053%=      5-min Rain = 0
KJTS 121540Z 16001KT M01/M10 A3033 RMK A01 T10131095  RH  054%=      5-min Rain = 0
KJTS 121545Z 14002KT M01/M10 A3034 RMK A01 T10111096  RH  053%=      5-min Rain = 0
KJTS 121550Z 17001KT M01/M10 A3034 RMK A01 T10111095  RH  053%=      5-min Rain = 0
KJTS 121555Z 34001KT M01/M10 A3034 RMK A01 T10091096  RH  052%=      5-min Rain = 0
KJTS 121600Z 35001KT M01/M10 A3033 RMK A01 T10101096  RH  053%=      5-min Rain = 0
KJTS 121605Z 00001KT M01/M10 A3034 RMK A01 T10071096  RH  052%=      5-min Rain = 0
KJTS 121610Z 34000KT M01/M10 A3033 RMK A01 T10051095  RH  051%=      5-min Rain = 0
KJTS 121615Z 10002KT 00/10 A3033 RMK A01 T00-00-96  RH  049%=      5-min Rain = 0
KJTS 121620Z 17002KT 00/M10 A3033 RMK A01 T00031095  RH  048%=      5-min Rain = 0
KJTS 121625Z 16002KT 00/M10 A3033 RMK A01 T00021097  RH  048%=      5-min Rain = 0
KJTS 121630Z 19001KT 01/M10 A3033 RMK A01 T00051097  RH  047%=      5-min Rain = 0
KJTS 121635Z 10002KT 01/M10 A3033 RMK A01 T00081097  RH  046%=      5-min Rain = 0
KJTS 121640Z 00001KT 01/M10 A3033 RMK A01 T00061098  RH  046%=      5-min Rain = 0
KJTS 121645Z 33002KT 01/M10 A3033 RMK A01 T00051098  RH  047%=      5-min Rain = 0
KJTS 121650Z 12002KT 01/M10 A3033 RMK A01 T00101097  RH  045%=      5-min Rain = 0
KJTS 121655Z 14002KT 01/M10 A3033 RMK A01 T00131097  RH  044%=      5-min Rain = 0
KJTS 121700Z 11001KT 02/M10 A3032 RMK A01 T00211096  RH  042%=      5-min Rain = 0
KJTS 121705Z 10002KT 03/M10 A3032 RMK A01 T00251098  RH  040%=      5-min Rain = 0
KJTS 121710Z 09003KT 02/M10 A3031 RMK A01 T00231098  RH  041%=      5-min Rain = 0
KJTS 121715Z 09002KT 02/M10 A3031 RMK A01 T00221099  RH  041%=      5-min Rain = 0
KJTS 121720Z 07003KT 02/M10 A3031 RMK A01 T00211098  RH  041%=      5-min Rain = 0
KJTS 121725Z 09005KT 02/M10 A3031 RMK A01 T00221098  RH  041%=      5-min Rain = 0
KJTS 121730Z 04003KT 02/M10 A3031 RMK A01 T00211098  RH  041%=      5-min Rain = 0
KJTS 121735Z 09005KT 03/M10 A303 RMK A01 T00261098  RH  040%=      5-min Rain = 0
KJTS 121740Z 10003KT 03/M10 A303 RMK A01 T00271098  RH  040%=      5-min Rain = 0
KJTS 121745Z 05003KT 03/M10 A303 RMK A01 T00311099  RH  038%=      5-min Rain = 0
KJTS 121750Z 14005KT 03/M10 A303 RMK A01 T00341103  RH  037%=      5-min Rain = 0
KJTS 121755Z 10004KT 04/M10 A303 RMK A01 T00361103  RH  036%=      5-min Rain = 0
KJTS 121800Z 08006KT 04/M10 A3029 RMK A01 T00351104  RH  036%=      5-min Rain = 0
KJTS 121805Z 06004KT 03/M11 A3029 RMK A01 T00331105  RH  036%=      5-min Rain = 0
KJTS 121810Z 08007KT 04/M11 A3029 RMK A01 T00371108  RH  034%=      5-min Rain = 0
KJTS 121815Z 10004KT 04/M11 A3028 RMK A01 T00381111  RH  033%=      5-min Rain = 0
KJTS 121820Z 10007KT 04/M11 A3028 RMK A01 T00431111  RH  032%=      5-min Rain = 0
KJTS 121825Z 12005KT 04/M11 A3027 RMK A01 T00401112  RH  032%=      5-min Rain = 0
KJTS 121830Z 11005G11KT 04/M11 A3026 RMK A01 T00431112  RH  032%=      5-min Rain = 0
KJTS 121835Z 10005G10KT 04/M11 A3026 RMK A01 T00421113  RH  032%=      5-min Rain = 0
KJTS 121840Z 12007KT 05/M12 A3025 RMK A01 T00461115  RH  030%=      5-min Rain = 0
KJTS 121845Z 13006KT 05/M12 A3024 RMK A01 T00481115  RH  030%=      5-min Rain = 0
KJTS 121850Z 14007KT 05/M12 A3024 RMK A01 T00511116  RH  029%=      5-min Rain = 0
KJTS 121855Z 15008KT 06/M12 A3024 RMK A01 T00551117  RH  028%=      5-min Rain = 0
KJTS 121900Z 17006KT 05/M12 A3024 RMK A01 T00541117  RH  028%=      5-min Rain = 0
KJTS 121905Z 15007KT 06/M12 A3023 RMK A01 T00551118  RH  028%=      5-min Rain = 0
KJTS 121910Z 15006G11KT 06/M12 A3023 RMK A01 T00551117  RH  028%=      5-min Rain = 0
KJTS 121915Z 13006KT 06/M12 A3023 RMK A01 T00551116  RH  028%=      5-min Rain = 0
KJTS 121920Z 13006G11KT 06/M12 A3023 RMK A01 T00561117  RH  028%=      5-min Rain = 0
KJTS 121925Z 14005KT 06/M12 A3022 RMK A01 T00561118  RH  028%=      5-min Rain = 0
KJTS 121930Z 15007KT 06/M12 A3022 RMK A01 T00591117  RH  027%=      5-min Rain = 0
KJTS 121935Z 15008G13KT 06/M12 A3021 RMK A01 T00611117  RH  027%=      5-min Rain = 0
KJTS 121940Z 15008G13KT 06/M12 A3021 RMK A01 T00601116  RH  028%=      5-min Rain = 0
KJTS 121945Z 14008G14KT 06/M12 A302 RMK A01 T00621115  RH  027%=      5-min Rain = 0
KJTS 121950Z 15006G11KT 07/M12 A302 RMK A01 T00651116  RH  027%=      5-min Rain = 0
KJTS 121955Z 15007KT 07/M12 A3019 RMK A01 T00691115  RH  026%=      5-min Rain = 0
KJTS 122000Z 14009KT 07/M12 A3019 RMK A01 T00701117  RH  025%=      5-min Rain = 0
KJTS 122005Z 15006KT 07/M12 A3019 RMK A01 T00691119  RH  025%=      5-min Rain = 0
KJTS 122010Z 14009KT 07/M12 A3019 RMK A01 T00731122  RH  024%=      5-min Rain = 0
KJTS 122015Z 15008KT 07/M12 A3019 RMK A01 T00741121  RH  024%=      5-min Rain = 0
KJTS 122020Z 13007KT 07/M12 A3019 RMK A01 T00741120  RH  024%=      5-min Rain = 0
KJTS 122025Z 13007KT 08/M12 A3019 RMK A01 T00751119  RH  024%=      5-min Rain = 0
KJTS 122030Z 14008G13KT 07/M12 A3019 RMK A01 T00741119  RH  024%=      5-min Rain = 0
KJTS 122035Z 14007G12KT 07/M12 A3019 RMK A01 T00741118  RH  025%=      5-min Rain = 0
KJTS 122040Z 12009G15KT 08/M12 A3019 RMK A01 T00751119  RH  024%=      5-min Rain = 0
KJTS 122045Z 14009KT 08/M12 A3019 RMK A01 T00751120  RH  024%=      5-min Rain = 0
KJTS 122050Z 12007G13KT 08/M12 A302 RMK A01 T00771118  RH  024%=      5-min Rain = 0
KJTS 122055Z 13008KT 08/M12 A302 RMK A01 T00821122  RH  022%=      5-min Rain = 0
KJTS 122100Z 13007KT 08/M12 A302 RMK A01 T00801121  RH  023%=      5-min Rain = 0
KJTS 122105Z 13009G16KT 08/M12 A3019 RMK A01 T00771122  RH  023%=      5-min Rain = 0
KJTS 122110Z 14008G13KT 08/M12 A3019 RMK A01 T00801122  RH  023%=      5-min Rain = 0
KJTS 122115Z 12008G13KT 08/M12 A3019 RMK A01 T00821121  RH  023%=      5-min Rain = 0
KJTS 122120Z 14008G13KT 08/M12 A3019 RMK A01 T00821121  RH  023%=      5-min Rain = 0
KJTS 122125Z 13008KT 08/M12 A3019 RMK A01 T00811121  RH  023%=      5-min Rain = 0
KJTS 122130Z 14009KT 08/M12 A3019 RMK A01 T00821122  RH  022%=      5-min Rain = 0
KJTS 122135Z 14009KT 08/M12 A3019 RMK A01 T00811121  RH  023%=      5-min Rain = 0
KJTS 122140Z 14007KT 08/M12 A3019 RMK A01 T00821120  RH  023%=      5-min Rain = 0
KJTS 122145Z 12008KT 08/M12 A3019 RMK A01 T00831120  RH  023%=      5-min Rain = 0
KJTS 122150Z 13008KT 08/M12 A3019 RMK A01 T00841121  RH  022%=      5-min Rain = 0
KJTS 122155Z 15009KT 08/M12 A3019 RMK A01 T00841120  RH  022%=      5-min Rain = 0
KJTS 122200Z 14007KT 08/M12 A3019 RMK A01 T00841120  RH  023%=      5-min Rain = 0
KJTS 122205Z 14008KT 09/M12 A3019 RMK A01 T00851121  RH  022%=      5-min Rain = 0
KJTS 122210Z 13008KT 08/M12 A3019 RMK A01 T00841122  RH  022%=      5-min Rain = 0
KJTS 122215Z 13008KT 08/M12 A3019 RMK A01 T00831122  RH  022%=      5-min Rain = 0
KJTS 122220Z 13009KT 08/M12 A3019 RMK A01 T00841124  RH  022%=      5-min Rain = 0
KJTS 122225Z 12009KT 08/M13 A3019 RMK A01 T00841125  RH  022%=      5-min Rain = 0
KJTS 122230Z 13010KT 09/M12 A3019 RMK A01 T00851124  RH  022%=      5-min Rain = 0
KJTS 122235Z 13008KT 08/M13 A3019 RMK A01 T00831125  RH  022%=      5-min Rain = 0
KJTS 122240Z 12009KT 08/M13 A3019 RMK A01 T00831125  RH  022%=      5-min Rain = 0
KJTS 122245Z 12010KT 08/M13 A3019 RMK A01 T00811125  RH  022%=      5-min Rain = 0
KJTS 122250Z 12010KT 08/M13 A3019 RMK A01 T00791125  RH  022%=      5-min Rain = 0
KJTS 122255Z 12010KT 08/M13 A3019 RMK A01 T00791125  RH  022%=      5-min Rain = 0
KJTS 122300Z 12009KT 08/M13 A3019 RMK A01 T00781125  RH  022%=      5-min Rain = 0
KJTS 122305Z 12010KT 08/M13 A3019 RMK A01 T00771125  RH  023%=      5-min Rain = 0
KJTS 122310Z 12010KT 08/M12 A3019 RMK A01 T00751124  RH  023%=      5-min Rain = 0
KJTS 122315Z 11010KT 07/M12 A3019 RMK A01 T00731124  RH  024%=      5-min Rain = 0
KJTS 122320Z 12009KT 07/M13 A3019 RMK A01 T00711125  RH  024%=      5-min Rain = 0
KJTS 122325Z 11008KT 07/M13 A3019 RMK A01 T00691125  RH  024%=      5-min Rain = 0
KJTS 122330Z 12009KT 07/M13 A3019 RMK A01 T00671125  RH  024%=      5-min Rain = 0
KJTS 122335Z 11009KT 06/M13 A302 RMK A01 T00641126  RH  025%=      5-min Rain = 0
KJTS 122340Z 11009KT 06/M13 A302 RMK A01 T00621127  RH  025%=      5-min Rain = 0
KJTS 122345Z 10009KT 06/M13 A302 RMK A01 T00601127  RH  025%=      5-min Rain = 0
KJTS 122350Z 10008KT 06/M13 A3021 RMK A01 T00571127  RH  026%=      5-min Rain = 0
KJTS 122355Z 09008KT 05/M13 A3021 RMK A01 T00531128  RH  026%=      5-min Rain = 0
KJTS 130000Z 10008KT 05/M13 A3021 RMK A01 T00491129  RH  027%=      5-min Rain = 0
KJTS 130005Z 10008KT 05/M13 A3021 RMK A01 T00451129  RH  027%=      5-min Rain = 0
KJTS 130010Z 09008KT 04/M13 A3022 RMK A01 T00411130  RH  028%=      5-min Rain = 0
KJTS 130015Z 09008KT 04/M13 A3022 RMK A01 T00381131  RH  028%=      5-min Rain = 0
KJTS 130020Z 09008KT 04/M13 A3023 RMK A01 T00371131  RH  028%=      5-min Rain = 0
KJTS 130025Z 08008KT 04/M13 A3023 RMK A01 T00361131  RH  029%=      5-min Rain = 0
KJTS 130030Z 08009KT 04/M13 A3023 RMK A01 T00371129  RH  029%=      5-min Rain = 0
KJTS 130035Z 08008KT 04/M13 A3023 RMK A01 T00371129  RH  029%=      5-min Rain = 0
KJTS 130040Z 08008KT 03/M13 A3024 RMK A01 T00341129  RH  030%=      5-min Rain = 0
KJTS 130045Z 08008KT 03/M13 A3024 RMK A01 T00331128  RH  030%=      5-min Rain = 0
KJTS 130050Z 08009KT 03/M13 A3024 RMK A01 T00321128  RH  030%=      5-min Rain = 0
KJTS 130055Z 08009KT 03/M13 A3024 RMK A01 T00321129  RH  030%=      5-min Rain = 0
KJTS 130100Z 08009KT 03/M13 A3024 RMK A01 T00301129  RH  030%=      5-min Rain = 0
KJTS 130105Z 08009KT 03/M13 A3024 RMK A01 T00291130  RH  030%=      5-min Rain = 0
KJTS 130110Z 08009KT 03/M13 A3025 RMK A01 T00291130  RH  030%=      5-min Rain = 0
KJTS 130115Z 07009KT 03/M13 A3025 RMK A01 T00261130  RH  031%=      5-min Rain = 0
KJTS 130120Z 07008KT 02/M13 A3026 RMK A01 T00221130  RH  032%=      5-min Rain = 0
KJTS 130125Z 07009KT 02/M13 A3026 RMK A01 T00201129  RH  033%=      5-min Rain = 0
KJTS 130130Z 07009KT 02/M13 A3026 RMK A01 T00191126  RH  034%=      5-min Rain = 0
KJTS 130135Z 07009KT 02/M13 A3026 RMK A01 T00171125  RH  034%=      5-min Rain = 0
KJTS 130140Z 07009KT 02/M12 A3027 RMK A01 T00151124  RH  035%=      5-min Rain = 0
KJTS 130145Z 07009KT 01/M12 A3027 RMK A01 T00131123  RH  036%=      5-min Rain = 0
KJTS 130150Z 07009KT 01/M12 A3027 RMK A01 T00121122  RH  037%=      5-min Rain = 0
KJTS 130155Z 07010KT 01/M12 A3028 RMK A01 T00111121  RH  037%=      5-min Rain = 0
KJTS 130200Z 07010KT 01/M12 A3028 RMK A01 T00111120  RH  037%=      5-min Rain = 0
KJTS 130205Z 06010KT 01/M12 A3029 RMK A01 T00101120  RH  038%=      5-min Rain = 0
KJTS 130210Z 06010KT 01/M12 A3029 RMK A01 T00081120  RH  038%=      5-min Rain = 0
KJTS 130215Z 06009KT 01/M12 A3029 RMK A01 T00061120  RH  039%=      5-min Rain = 0
KJTS 130220Z 06009KT 01/M12 A303 RMK A01 T00051120  RH  039%=      5-min Rain = 0
KJTS 130225Z 05009KT 00/M12 A3031 RMK A01 T00031120  RH  040%=      5-min Rain = 0
KJTS 130230Z 05009KT 00/M12 A3031 RMK A01 T00021120  RH  040%=      5-min Rain = 0
KJTS 130235Z 05009KT 00/M12 A3032 RMK A01 T00021120  RH  040%=      5-min Rain = 0
KJTS 130240Z 05009KT 00/M12 A3032 RMK A01 T00021121  RH  040%=      5-min Rain = 0
KJTS 130245Z 06009KT 00/M12 A3032 RMK A01 T00011122  RH  040%=      5-min Rain = 0
KJTS 130250Z 06008KT M00/M12 A3033 RMK A01 T10011123  RH  040%=      5-min Rain = 0
KJTS 130255Z 05008KT M00/M12 A3033 RMK A01 T10021123  RH  040%=      5-min Rain = 0
KJTS 130300Z 05008KT M00/M12 A3033 RMK A01 T10031123  RH  041%=      5-min Rain = 0
KJTS 130305Z 06008KT M00/M12 A3033 RMK A01 T10041124  RH  040%=      5-min Rain = 0
KJTS 130310Z 06008KT M01/M12 A3034 RMK A01 T10051124  RH  041%=      5-min Rain = 0
KJTS 130315Z 06008KT M01/M13 A3034 RMK A01 T10061125  RH  041%=      5-min Rain = 0
KJTS 130320Z 06007KT M01/M13 A3034 RMK A01 T10081125  RH  041%=      5-min Rain = 0
KJTS 130325Z 06006KT M01/M13 A3034 RMK A01 T10101126  RH  042%=      5-min Rain = 0
KJTS 130330Z 05007KT M01/M13 A3035 RMK A01 T10111125  RH  042%=      5-min Rain = 0
KJTS 130335Z 04006KT M01/M13 A3035 RMK A01 T10111126  RH  042%=      5-min Rain = 0
KJTS 130340Z 04007KT M01/M13 A3036 RMK A01 T10131126  RH  043%=      5-min Rain = 0
KJTS 130345Z 04007KT M01/M13 A3037 RMK A01 T10141125  RH  043%=      5-min Rain = 0
KJTS 130350Z 04007KT M01/M13 A3037 RMK A01 T10131126  RH  042%=      5-min Rain = 0
KJTS 130355Z 04008KT M01/M13 A3037 RMK A01 T10131127  RH  042%=      5-min Rain = 0
KJTS 130400Z 04008KT M02/M13 A3037 RMK A01 T10151127  RH  043%=      5-min Rain = 0
KJTS 130405Z 04007KT M02/M13 A3038 RMK A01 T10161127  RH  043%=      5-min Rain = 0
KJTS 130410Z 04007KT M02/M13 A3038 RMK A01 T10161127  RH  043%=      5-min Rain = 0
KJTS 130415Z 05007KT M02/M13 A3038 RMK A01 T10151127  RH  043%=      5-min Rain = 0
KJTS 130420Z 05007KT M02/M13 A3038 RMK A01 T10151127  RH  043%=      5-min Rain = 0
KJTS 130425Z 04007KT M02/M13 A3038 RMK A01 T10161127  RH  043%=      5-min Rain = 0
KJTS 130430Z 05007KT M02/M13 A3039 RMK A01 T10171128  RH  043%=      5-min Rain = 0
KJTS 130435Z 04007KT M02/M13 A3039 RMK A01 T10181128  RH  043%=      5-min Rain = 0
KJTS 130440Z 04006KT M02/M13 A3039 RMK A01 T10181128  RH  043%=      5-min Rain = 0
KJTS 130445Z 03006KT M02/M13 A304 RMK A01 T10181128  RH  043%=      5-min Rain = 0
KJTS 130450Z 03006KT M02/M13 A304 RMK A01 T10181128  RH  044%=      5-min Rain = 0
KJTS 130455Z 03005KT M02/M13 A3041 RMK A01 T10191128  RH  044%=      5-min Rain = 0
KJTS 130500Z 02005KT M02/M13 A3041 RMK A01 T10201128  RH  044%=      5-min Rain = 0
KJTS 130505Z 02005KT M02/M13 A3041 RMK A01 T10211128  RH  044%=      5-min Rain = 0
KJTS 130510Z 01005KT M02/M13 A3042 RMK A01 T10211128  RH  044%=      5-min Rain = 0
KJTS 130515Z 01004KT M02/M13 A3042 RMK A01 T10231129  RH  045%=      5-min Rain = 0
KJTS 130520Z 02005KT M03/M13 A3042 RMK A01 T10251129  RH  045%=      5-min Rain = 0
KJTS 130525Z 02006KT M03/M13 A3043 RMK A01 T10251129  RH  046%=      5-min Rain = 0
KJTS 130530Z 02005KT M03/M13 A3043 RMK A01 T10251128  RH  046%=      5-min Rain = 0
KJTS 130535Z 03005KT M02/M13 A3043 RMK A01 T10241128  RH  045%=      5-min Rain = 0
KJTS 130540Z 03006KT M02/M13 A3043 RMK A01 T10241129  RH  045%=      5-min Rain = 0
KJTS 130545Z 03006KT M03/M13 A3043 RMK A01 T10261128  RH  046%=      5-min Rain = 0
KJTS 130550Z 02006KT M03/M13 A3044 RMK A01 T10261128  RH  046%=      5-min Rain = 0
KJTS 130555Z 01006KT M03/M13 A3045 RMK A01 T10261129  RH  046%=      5-min Rain = 0

Page generated in 0.0393 seconds.